createdAt,value
2023-11-10T00:00:05.142Z,448.03
2023-11-10T00:00:49.651Z,522.84
2023-11-10T00:01:34.556Z,519.10
2023-11-10T00:02:22.032Z,519.10
2023-11-10T00:03:06.478Z,410.04
2023-11-10T00:03:50.074Z,528.18
2023-11-10T00:04:35.332Z,528.18
2023-11-10T00:05:19.998Z,514.30
2023-11-10T00:06:05.319Z,556.33
2023-11-10T00:06:50.302Z,556.33
2023-11-10T00:07:35.273Z,556.33
2023-11-10T00:08:20.677Z,556.33
2023-11-10T00:09:06.381Z,556.33
2023-11-10T00:09:52.921Z,556.33
2023-11-10T00:10:35.871Z,556.33
2023-11-10T00:11:20.543Z,556.33
2023-11-10T00:12:05.636Z,556.33
2023-11-10T00:12:50.534Z,455.20
2023-11-10T00:13:35.719Z,605.41
2023-11-10T00:14:27.411Z,602.44
2023-11-10T00:15:05.522Z,576.42
2023-11-10T00:15:51.203Z,601.84
2023-11-10T00:16:35.676Z,575.85
2023-11-10T00:17:20.905Z,578.72
2023-11-10T00:18:06.303Z,533.52
2023-11-10T00:18:51.104Z,533.52
2023-11-10T00:19:36.147Z,533.52
2023-11-10T00:20:22.210Z,533.52
2023-11-10T00:21:07.725Z,422.15
2023-11-10T00:21:51.281Z,422.15
2023-11-10T00:22:36.351Z,422.15
2023-11-10T00:23:21.627Z,422.15
2023-11-10T00:24:06.189Z,422.15
2023-11-10T00:24:51.668Z,422.15
2023-11-10T00:25:36.815Z,422.15
2023-11-10T00:26:21.446Z,422.15
2023-11-10T00:27:08.602Z,422.15
2023-11-10T00:27:52.428Z,422.15
2023-11-10T00:28:36.713Z,422.15
2023-11-10T00:29:21.890Z,422.15
2023-11-10T00:30:06.577Z,422.15
2023-11-10T00:30:51.836Z,422.15
2023-11-10T00:31:37.022Z,422.15
2023-11-10T00:32:21.939Z,422.15
2023-11-10T00:33:07.127Z,422.15
2023-11-10T00:33:52.321Z,422.15
2023-11-10T00:34:37.090Z,422.15
2023-11-10T00:35:22.344Z,422.15
2023-11-10T00:36:07.306Z,422.15
2023-11-10T00:36:52.578Z,422.15
2023-11-10T00:37:38.058Z,422.15
2023-11-10T00:38:22.195Z,422.15
2023-11-10T00:39:07.454Z,422.15
2023-11-10T00:39:52.746Z,422.15
2023-11-10T00:40:38.290Z,422.15
2023-11-10T00:41:24.333Z,422.15
2023-11-10T00:42:07.946Z,422.15
2023-11-10T00:42:53.792Z,422.15
2023-11-10T00:43:38.147Z,422.15
2023-11-10T00:44:23.061Z,422.15
2023-11-10T00:45:09.482Z,422.15
2023-11-10T00:45:52.868Z,422.15
2023-11-10T00:46:38.005Z,422.15
2023-11-10T00:47:23.178Z,422.15
2023-11-10T00:48:08.520Z,422.15
2023-11-10T00:48:53.312Z,422.15
2023-11-10T00:49:38.497Z,422.15
2023-11-10T00:50:23.696Z,422.15
2023-11-10T00:51:08.331Z,422.15
2023-11-10T00:51:54.509Z,422.15
2023-11-10T00:52:38.026Z,47.94
2023-11-10T00:53:23.012Z,156.72
2023-11-10T00:54:08.325Z,198.75
2023-11-10T00:54:53.422Z,198.75
2023-11-10T00:55:38.604Z,198.75
2023-11-10T00:56:23.324Z,38.96
2023-11-10T00:57:08.571Z,46.94
2023-11-10T00:57:53.259Z,45.92
2023-11-10T00:58:38.331Z,60.92
2023-11-10T00:59:23.262Z,120.85
2023-11-10T01:00:08.541Z,214.73
2023-11-10T01:00:54.020Z,214.73
2023-11-10T01:01:38.695Z,166.71
2023-11-10T01:02:23.624Z,226.72
2023-11-10T01:03:09.108Z,616.08
2023-11-10T01:03:54.163Z,1019.56
2023-11-10T01:04:39.013Z,1003.78
2023-11-10T01:05:23.795Z,896.54
2023-11-10T01:06:08.982Z,785.94
2023-11-10T01:06:54.037Z,510.50
2023-11-10T01:07:40.084Z,510.50
2023-11-10T01:08:24.218Z,510.50
2023-11-10T01:09:09.528Z,510.50
2023-11-10T01:09:54.502Z,510.50
2023-11-10T01:10:39.603Z,510.50
2023-11-10T01:11:24.906Z,510.50
2023-11-10T01:12:09.927Z,510.50
2023-11-10T01:12:54.766Z,916.56
2023-11-10T01:13:39.410Z,29.95
2023-11-10T01:14:24.560Z,19.97
2023-11-10T01:15:09.664Z,145.82
2023-11-10T01:16:01.734Z,197.75
2023-11-10T01:16:39.876Z,165.79
2023-11-10T01:17:25.125Z,400.50
2023-11-10T01:18:10.083Z,791.82
2023-11-10T01:18:55.332Z,791.82
2023-11-10T01:19:40.252Z,433.68
2023-11-10T01:20:25.370Z,375.77
2023-11-10T01:21:10.461Z,1042.77
2023-11-10T01:21:55.308Z,1042.77
2023-11-10T01:22:44.621Z,1054.25
2023-11-10T01:23:25.903Z,1054.25
2023-11-10T01:24:10.993Z,6.00
2023-11-10T01:24:55.603Z,7.00
2023-11-10T01:25:41.694Z,38.99
2023-11-10T01:26:25.553Z,939.60
2023-11-10T01:27:14.878Z,810.50
2023-11-10T01:27:55.929Z,1052.60
2023-11-10T01:28:40.871Z,1023.68
2023-11-10T01:29:26.040Z,982.41
2023-11-10T01:30:11.299Z,967.86
2023-11-10T01:30:56.147Z,967.86
2023-11-10T01:31:41.320Z,895.65
2023-11-10T01:32:26.175Z,679.64
2023-11-10T01:33:11.217Z,819.06
2023-11-10T01:33:56.545Z,737.35
2023-11-10T01:34:42.207Z,737.35
2023-11-10T01:35:26.701Z,22.99
2023-11-10T01:36:12.594Z,17.00
2023-11-10T01:36:56.436Z,14.00
2023-11-10T01:37:41.490Z,16.00
2023-11-10T01:38:26.600Z,19.00
2023-11-10T01:39:13.071Z,894.15
2023-11-10T01:39:56.659Z,1004.14
2023-11-10T01:40:41.844Z,1026.69
2023-11-10T01:41:26.755Z,15.00
2023-11-10T01:42:11.882Z,29.00
2023-11-10T01:42:57.276Z,43.99
2023-11-10T01:43:41.809Z,94.99
2023-11-10T01:44:27.138Z,930.39
2023-11-10T01:45:11.852Z,352.14
2023-11-10T01:45:56.947Z,6.00
2023-11-10T01:46:42.695Z,7.00
2023-11-10T01:47:27.195Z,8.00
2023-11-10T01:48:12.114Z,10.00
2023-11-10T01:48:57.347Z,6.00
2023-11-10T01:49:43.039Z,8.00
2023-11-10T01:50:27.617Z,8.00
2023-11-10T01:51:12.987Z,7.00
2023-11-10T01:51:57.259Z,7.00
2023-11-10T01:52:42.713Z,7.00
2023-11-10T01:53:27.514Z,5.00
2023-11-10T01:54:12.769Z,5.00
2023-11-10T01:54:57.657Z,6.00
2023-11-10T01:55:42.772Z,15.00
2023-11-10T01:56:27.850Z,6.00
2023-11-10T01:57:15.337Z,7.00
2023-11-10T01:58:01.700Z,5.00
2023-11-10T01:58:42.597Z,7.00
2023-11-10T01:59:27.779Z,6.00
2023-11-10T02:00:13.128Z,6.00
2023-11-10T02:00:58.029Z,6.00
2023-11-10T02:01:43.200Z,6.00
2023-11-10T02:02:28.289Z,5.00
2023-11-10T02:03:13.196Z,6.00
2023-11-10T02:03:58.154Z,6.00
2023-11-10T02:04:43.451Z,5.00
2023-11-10T02:05:28.184Z,6.00
2023-11-10T02:06:13.412Z,11.00
2023-11-10T02:06:58.595Z,24.00
2023-11-10T02:07:43.524Z,166.99
2023-11-10T02:08:28.667Z,94.99
2023-11-10T02:09:13.691Z,931.02
2023-11-10T02:09:58.313Z,7.00
2023-11-10T02:10:43.631Z,860.56
2023-11-10T02:11:28.745Z,5.00
2023-11-10T02:12:13.436Z,19.00
2023-11-10T02:12:58.844Z,1018.92
2023-11-10T02:13:45.032Z,14.00
2023-11-10T02:14:28.798Z,798.78
2023-11-10T02:15:14.100Z,1023.10
2023-11-10T02:15:58.878Z,25.00
2023-11-10T02:16:44.432Z,913.04
2023-11-10T02:17:30.356Z,6.00
2023-11-10T02:18:14.266Z,10.00
2023-11-10T02:18:59.437Z,715.89
2023-11-10T02:19:44.327Z,742.83
2023-11-10T02:20:29.563Z,772.18
2023-11-10T02:21:14.368Z,8.00
2023-11-10T02:21:59.559Z,962.51
2023-11-10T02:22:44.447Z,12.00
2023-11-10T02:23:29.472Z,93.00
2023-11-10T02:24:14.693Z,786.97
2023-11-10T02:24:59.780Z,865.97
2023-11-10T02:25:44.489Z,879.97
2023-11-10T02:26:29.799Z,301.99
2023-11-10T02:27:15.010Z,1010.95
2023-11-10T02:28:00.274Z,992.95
2023-11-10T02:28:44.893Z,934.97
2023-11-10T02:29:30.299Z,744.98
2023-11-10T02:30:15.018Z,525.99
2023-11-10T02:31:00.035Z,341.99
2023-11-10T02:31:45.578Z,308.99
2023-11-10T02:32:30.072Z,215.00
2023-11-10T02:33:15.393Z,171.00
2023-11-10T02:34:01.747Z,67.00
2023-11-10T02:34:45.352Z,8.00
2023-11-10T02:35:32.223Z,10.00
2023-11-10T02:36:15.736Z,9.00
2023-11-10T02:37:00.422Z,8.00
2023-11-10T02:37:45.592Z,6.00
2023-11-10T02:38:30.970Z,10.00
2023-11-10T02:39:15.718Z,9.00
2023-11-10T02:40:00.699Z,8.00
2023-11-10T02:40:45.719Z,20.00
2023-11-10T02:41:30.826Z,15.00
2023-11-10T02:42:15.803Z,13.00
2023-11-10T02:43:00.795Z,19.00
2023-11-10T02:43:45.865Z,21.00
2023-11-10T02:44:31.190Z,24.00
2023-11-10T02:45:15.860Z,28.00
2023-11-10T02:46:01.231Z,19.00
2023-11-10T02:46:45.934Z,18.00
2023-11-10T02:47:31.334Z,21.00
2023-11-10T02:48:16.405Z,22.00
2023-11-10T02:49:01.136Z,16.00
2023-11-10T02:49:46.415Z,22.00
2023-11-10T02:50:31.914Z,55.00
2023-11-10T02:51:16.347Z,43.00
2023-11-10T02:52:01.480Z,32.00
2023-11-10T02:52:46.634Z,20.00
2023-11-10T02:53:32.143Z,27.00
2023-11-10T02:54:16.687Z,33.00
2023-11-10T02:55:01.517Z,34.00
2023-11-10T02:55:46.638Z,34.00
2023-11-10T02:56:31.811Z,27.00
2023-11-10T02:57:17.034Z,27.00
2023-11-10T02:58:01.866Z,26.00
2023-11-10T02:58:47.164Z,22.00
2023-11-10T02:59:33.481Z,22.00
2023-11-10T03:00:17.070Z,21.00
2023-11-10T03:01:02.246Z,23.00
2023-11-10T03:01:47.397Z,21.00
2023-11-10T03:02:32.196Z,26.00
2023-11-10T03:03:17.534Z,27.00
2023-11-10T03:04:02.247Z,20.00
2023-11-10T03:04:50.956Z,19.00
2023-11-10T03:05:32.371Z,34.00
2023-11-10T03:06:17.459Z,19.00
2023-11-10T03:07:02.585Z,15.00
2023-11-10T03:07:47.647Z,19.00
2023-11-10T03:08:32.423Z,15.00
2023-11-10T03:09:17.741Z,17.00
2023-11-10T03:10:02.771Z,17.00
2023-11-10T03:10:47.643Z,16.00
2023-11-10T03:11:32.911Z,22.00
2023-11-10T03:12:19.497Z,22.00
2023-11-10T03:13:04.235Z,46.00
2023-11-10T03:13:48.159Z,40.00
2023-11-10T03:14:33.419Z,33.00
2023-11-10T03:15:18.078Z,55.00
2023-11-10T03:16:03.096Z,41.00
2023-11-10T03:16:54.118Z,48.00
2023-11-10T03:17:33.224Z,40.00
2023-11-10T03:18:18.565Z,26.00
2023-11-10T03:19:03.305Z,29.00
2023-11-10T03:19:49.637Z,26.00
2023-11-10T03:20:33.862Z,39.00
2023-11-10T03:21:18.594Z,26.00
2023-11-10T03:22:03.484Z,22.00
2023-11-10T03:22:48.571Z,26.00
2023-11-10T03:23:33.515Z,25.00
2023-11-10T03:24:19.036Z,25.00
2023-11-10T03:25:03.968Z,29.00
2023-11-10T03:25:48.963Z,29.00
2023-11-10T03:26:33.769Z,26.00
2023-11-10T03:27:18.997Z,25.00
2023-11-10T03:28:03.864Z,21.00
2023-11-10T03:28:49.182Z,22.00
2023-11-10T03:29:33.901Z,33.99
2023-11-10T03:30:19.017Z,26.99
2023-11-10T03:31:04.062Z,23.00
2023-11-10T03:31:49.219Z,18.00
2023-11-10T03:32:34.195Z,20.00
2023-11-10T03:33:19.099Z,21.00
2023-11-10T03:34:04.223Z,21.99
2023-11-10T03:34:49.531Z,27.99
2023-11-10T03:35:34.188Z,45.99
2023-11-10T03:36:19.474Z,24.99
2023-11-10T03:37:04.579Z,17.00
2023-11-10T03:37:49.470Z,19.00
2023-11-10T03:38:34.579Z,23.99
2023-11-10T03:39:20.218Z,19.00
2023-11-10T03:40:04.545Z,21.99
2023-11-10T03:40:49.896Z,28.99
2023-11-10T03:41:34.867Z,88.98
2023-11-10T03:42:19.772Z,108.98
2023-11-10T03:43:04.839Z,91.98
2023-11-10T03:43:50.082Z,103.98
2023-11-10T03:44:35.146Z,93.98
2023-11-10T03:45:20.437Z,75.99
2023-11-10T03:46:05.275Z,111.98
2023-11-10T03:46:50.066Z,107.98
2023-11-10T03:47:35.267Z,110.98
2023-11-10T03:48:20.395Z,93.98
2023-11-10T03:49:05.165Z,85.98
2023-11-10T03:49:50.504Z,111.98
2023-11-10T03:50:35.261Z,111.98
2023-11-10T03:51:20.278Z,313.94
2023-11-10T03:52:05.231Z,313.94
2023-11-10T03:52:50.355Z,1044.81
2023-11-10T03:53:35.517Z,1044.81
2023-11-10T03:54:20.315Z,950.82
2023-11-10T03:55:05.405Z,1009.81
2023-11-10T03:55:50.470Z,1066.12
2023-11-10T03:56:35.890Z,749.86
2023-11-10T03:57:21.877Z,558.90
2023-11-10T03:58:05.621Z,291.95
2023-11-10T03:58:50.636Z,1051.00
2023-11-10T03:59:36.333Z,1051.00
2023-11-10T04:00:21.312Z,1051.00
2023-11-10T04:01:06.584Z,1051.00
2023-11-10T04:01:51.677Z,1051.00
2023-11-10T04:02:36.622Z,1051.00
2023-11-10T04:03:21.902Z,1051.00
2023-11-10T04:04:07.349Z,1051.00
2023-11-10T04:04:51.497Z,1051.00
2023-11-10T04:05:36.673Z,1051.00
2023-11-10T04:06:31.242Z,1051.00
2023-11-10T04:07:06.642Z,1051.00
2023-11-10T04:07:51.648Z,1051.00
2023-11-10T04:08:36.893Z,1051.00
2023-11-10T04:09:22.506Z,1051.00
2023-11-10T04:10:06.714Z,1051.00
2023-11-10T04:10:51.837Z,1051.00
2023-11-10T04:11:37.138Z,1051.00
2023-11-10T04:12:22.723Z,1051.00
2023-11-10T04:13:08.986Z,367.95
2023-11-10T04:13:51.945Z,496.93
2023-11-10T04:14:37.619Z,533.92
2023-11-10T04:15:22.310Z,533.92
2023-11-10T04:16:08.375Z,611.91
2023-11-10T04:16:52.280Z,467.93
2023-11-10T04:17:37.018Z,1002.85
2023-11-10T04:18:22.177Z,718.89
2023-11-10T04:19:06.887Z,718.89
2023-11-10T04:19:52.509Z,690.90
2023-11-10T04:20:37.538Z,757.83
2023-11-10T04:21:22.645Z,652.90
2023-11-10T04:22:08.317Z,420.94
2023-11-10T04:22:52.549Z,536.92
2023-11-10T04:23:37.413Z,640.91
2023-11-10T04:24:22.561Z,457.93
2023-11-10T04:25:09.055Z,363.95
2023-11-10T04:25:52.495Z,347.95
2023-11-10T04:26:38.414Z,331.95
2023-11-10T04:27:22.877Z,439.93
2023-11-10T04:28:09.282Z,453.93
2023-11-10T04:28:53.011Z,189.97
2023-11-10T04:29:39.270Z,110.98
2023-11-10T04:30:24.368Z,151.98
2023-11-10T04:31:08.284Z,91.99
2023-11-10T04:31:53.032Z,119.98
2023-11-10T04:32:45.747Z,133.98
2023-11-10T04:33:23.406Z,134.98
2023-11-10T04:34:08.880Z,106.98
2023-11-10T04:34:53.217Z,124.98
2023-11-10T04:35:38.562Z,210.97
2023-11-10T04:36:23.757Z,107.98
2023-11-10T04:37:08.379Z,97.99
2023-11-10T04:37:53.575Z,159.98
2023-11-10T04:38:38.302Z,135.97
2023-11-10T04:39:23.645Z,100.98
2023-11-10T04:40:08.749Z,115.98
2023-11-10T04:40:54.732Z,102.98
2023-11-10T04:41:38.623Z,89.98
2023-11-10T04:42:23.857Z,92.98
2023-11-10T04:43:08.878Z,119.98
2023-11-10T04:43:54.507Z,125.98
2023-11-10T04:44:39.234Z,84.98
2023-11-10T04:45:24.016Z,83.98
2023-11-10T04:46:09.098Z,52.99
2023-11-10T04:46:54.305Z,74.98
2023-11-10T04:47:39.066Z,50.99
2023-11-10T04:48:24.254Z,62.99
2023-11-10T04:49:09.379Z,74.98
2023-11-10T04:49:54.591Z,124.96
2023-11-10T04:50:41.365Z,113.97
2023-11-10T04:51:24.341Z,66.97
2023-11-10T04:52:09.388Z,56.99
2023-11-10T04:52:54.521Z,89.97
2023-11-10T04:53:39.357Z,50.99
2023-11-10T04:54:24.593Z,68.98
2023-11-10T04:55:09.708Z,58.98
2023-11-10T04:55:54.602Z,59.98
2023-11-10T04:56:43.164Z,51.99
2023-11-10T04:57:25.102Z,38.99
2023-11-10T04:58:09.765Z,43.99
2023-11-10T04:58:54.970Z,47.99
2023-11-10T04:59:39.960Z,50.99
2023-11-10T05:00:25.381Z,45.99
2023-11-10T05:01:10.277Z,44.98
2023-11-10T05:01:55.534Z,57.99
2023-11-10T05:02:42.320Z,29.99
2023-11-10T05:03:25.400Z,26.99
2023-11-10T05:04:10.532Z,40.99
2023-11-10T05:04:57.427Z,25.99
2023-11-10T05:05:40.437Z,65.98
2023-11-10T05:06:25.620Z,65.98
2023-11-10T05:07:10.432Z,43.99
2023-11-10T05:07:55.874Z,29.98
2023-11-10T05:08:40.925Z,20.99
2023-11-10T05:09:25.694Z,20.99
2023-11-10T05:10:10.742Z,32.99
2023-11-10T05:10:55.502Z,26.99
2023-11-10T05:11:40.770Z,25.99
2023-11-10T05:12:25.938Z,46.99
2023-11-10T05:13:11.359Z,28.99
2023-11-10T05:13:56.013Z,28.99
2023-11-10T05:14:41.213Z,19.99
2023-11-10T05:15:26.211Z,31.99
2023-11-10T05:16:11.481Z,26.99
2023-11-10T05:16:56.200Z,26.99
2023-11-10T05:17:41.214Z,21.99
2023-11-10T05:19:11.179Z,29.99
2023-11-10T05:19:56.493Z,24.99
2023-11-10T05:20:41.616Z,83.97
2023-11-10T05:21:27.607Z,29.99
2023-11-10T05:22:12.557Z,26.99
2023-11-10T05:22:56.541Z,27.99
2023-11-10T05:23:41.605Z,21.99
2023-11-10T05:24:27.556Z,31.98
2023-11-10T05:25:11.885Z,15.99
2023-11-10T05:25:56.713Z,26.99
2023-11-10T05:26:41.794Z,26.99
2023-11-10T05:27:26.963Z,26.99
2023-11-10T05:28:12.186Z,23.98
2023-11-10T05:28:56.956Z,34.98
2023-11-10T05:29:42.052Z,25.99
2023-11-10T05:30:27.199Z,27.99
2023-11-10T05:31:12.268Z,18.99
2023-11-10T05:31:58.103Z,25.99
2023-11-10T05:32:42.344Z,17.99
2023-11-10T05:33:27.281Z,25.99
2023-11-10T05:34:12.132Z,21.99
2023-11-10T05:34:57.389Z,27.98
2023-11-10T05:35:42.602Z,74.96
2023-11-10T05:36:27.640Z,26.99
2023-11-10T05:37:12.547Z,14.99
2023-11-10T05:37:57.316Z,27.99
2023-11-10T05:38:42.485Z,27.99
2023-11-10T05:39:27.672Z,22.99
2023-11-10T05:40:12.515Z,20.98
2023-11-10T05:40:58.379Z,31.98
2023-11-10T05:41:42.936Z,24.98
2023-11-10T05:42:27.615Z,25.98
2023-11-10T05:43:12.892Z,28.99
2023-11-10T05:43:57.694Z,16.99
2023-11-10T05:44:42.870Z,24.99
2023-11-10T05:45:28.411Z,50.97
2023-11-10T05:46:13.154Z,28.99
2023-11-10T05:46:57.940Z,28.98
2023-11-10T05:47:43.250Z,22.99
2023-11-10T05:48:28.256Z,15.99
2023-11-10T05:49:13.255Z,15.99
2023-11-10T05:49:58.431Z,24.98
2023-11-10T05:50:43.790Z,24.98
2023-11-10T05:51:28.462Z,24.98
2023-11-10T05:52:14.377Z,28.97
2023-11-10T05:52:58.672Z,17.99
2023-11-10T05:53:43.371Z,17.98
2023-11-10T05:54:28.886Z,27.98
2023-11-10T05:55:13.959Z,12.99
2023-11-10T05:55:58.793Z,20.99
2023-11-10T05:56:43.954Z,14.99
2023-11-10T05:57:29.276Z,18.99
2023-11-10T05:58:13.771Z,14.99
2023-11-10T05:58:59.010Z,27.98
2023-11-10T05:59:44.960Z,13.99
2023-11-10T06:00:29.231Z,13.99
2023-11-10T06:01:14.195Z,19.99
2023-11-10T06:01:59.097Z,19.99
2023-11-10T06:02:44.507Z,15.99
2023-11-10T06:03:29.630Z,15.99
2023-11-10T06:04:21.893Z,12.99
2023-11-10T06:04:59.550Z,22.99
2023-11-10T06:05:44.624Z,32.98
2023-11-10T06:06:29.458Z,14.99
2023-11-10T06:07:14.390Z,14.99
2023-11-10T06:08:00.942Z,23.99
2023-11-10T06:08:44.619Z,15.99
2023-11-10T06:09:29.939Z,18.98
2023-11-10T06:10:15.837Z,22.99
2023-11-10T06:11:00.497Z,18.99
2023-11-10T06:11:53.097Z,30.98
2023-11-10T06:12:29.811Z,24.98
2023-11-10T06:13:14.965Z,18.99
2023-11-10T06:13:59.814Z,21.99
2023-11-10T06:14:45.108Z,21.99
2023-11-10T06:15:30.372Z,27.98
2023-11-10T06:16:15.291Z,25.98
2023-11-10T06:17:00.165Z,20.99
2023-11-10T06:17:46.297Z,20.99
2023-11-10T06:18:30.373Z,19.99
2023-11-10T06:19:15.959Z,19.99
2023-11-10T06:20:01.557Z,26.98
2023-11-10T06:20:45.380Z,59.96
2023-11-10T06:21:30.628Z,51.97
2023-11-10T06:22:15.556Z,68.96
2023-11-10T06:23:00.698Z,47.97
2023-11-10T06:23:46.643Z,33.98
2023-11-10T06:24:31.936Z,41.97
2023-11-10T06:25:15.590Z,42.97
2023-11-10T06:26:00.794Z,38.98
2023-11-10T06:26:45.678Z,44.97
2023-11-10T06:27:31.396Z,32.98
2023-11-10T06:28:15.789Z,35.97
2023-11-10T06:29:01.094Z,36.98
2023-11-10T06:29:46.021Z,31.98
2023-11-10T06:30:31.238Z,35.98
2023-11-10T06:31:16.372Z,35.98
2023-11-10T06:32:04.021Z,25.98
2023-11-10T06:32:46.356Z,32.97
2023-11-10T06:33:31.452Z,26.98
2023-11-10T06:34:16.757Z,23.99
2023-11-10T06:35:01.372Z,26.98
2023-11-10T06:35:46.684Z,44.96
2023-11-10T06:36:31.510Z,28.99
2023-11-10T06:37:16.653Z,26.98
2023-11-10T06:38:02.870Z,25.98
2023-11-10T06:38:46.822Z,29.98
2023-11-10T06:39:31.761Z,27.98
2023-11-10T06:40:17.100Z,26.98
2023-11-10T06:41:02.153Z,23.99
2023-11-10T06:41:47.123Z,21.98
2023-11-10T06:42:32.077Z,15.99
2023-11-10T06:43:17.343Z,25.98
2023-11-10T06:44:02.466Z,27.98
2023-11-10T06:44:47.388Z,21.98
2023-11-10T06:45:32.271Z,17.99
2023-11-10T06:46:17.597Z,19.98
2023-11-10T06:47:02.470Z,20.99
2023-11-10T06:47:47.603Z,20.99
2023-11-10T06:48:32.442Z,21.99
2023-11-10T06:49:17.576Z,19.99
2023-11-10T06:50:03.014Z,32.98
2023-11-10T06:50:47.677Z,49.97
2023-11-10T06:51:32.738Z,28.98
2023-11-10T06:52:17.651Z,35.97
2023-11-10T06:53:02.771Z,22.99
2023-11-10T06:53:47.618Z,19.99
2023-11-10T06:54:32.789Z,25.98
2023-11-10T06:55:17.964Z,26.98
2023-11-10T06:56:03.195Z,27.98
2023-11-10T06:56:48.423Z,25.98
2023-11-10T06:57:33.179Z,27.98
2023-11-10T06:58:17.918Z,27.98
2023-11-10T06:59:03.089Z,18.99
2023-11-10T06:59:48.972Z,18.99
2023-11-10T07:00:33.317Z,29.98
2023-11-10T07:01:18.469Z,31.97
2023-11-10T07:02:03.558Z,23.99
2023-11-10T07:02:49.141Z,23.98
2023-11-10T07:03:33.592Z,28.98
2023-11-10T07:04:18.772Z,27.98
2023-11-10T07:05:03.477Z,25.98
2023-11-10T07:05:48.638Z,29.98
2023-11-10T07:06:33.542Z,20.99
2023-11-10T07:07:18.766Z,20.99
2023-11-10T07:08:03.917Z,20.99
2023-11-10T07:08:48.992Z,20.99
2023-11-10T07:09:33.973Z,24.99
2023-11-10T07:10:18.677Z,337.70
2023-11-10T07:11:04.064Z,337.70
2023-11-10T07:11:49.552Z,940.60
2023-11-10T07:12:33.884Z,775.52
2023-11-10T07:13:19.227Z,1080.76
2023-11-10T07:14:04.003Z,1080.76
2023-11-10T07:14:51.141Z,1080.76
2023-11-10T07:15:34.151Z,414.75
2023-11-10T07:16:19.263Z,483.70
2023-11-10T07:17:04.664Z,483.70
2023-11-10T07:17:49.575Z,483.70
2023-11-10T07:18:34.751Z,483.70
2023-11-10T07:19:19.661Z,483.70
2023-11-10T07:20:05.009Z,483.70
2023-11-10T07:20:50.777Z,483.70
2023-11-10T07:21:34.886Z,483.70
2023-11-10T07:22:19.808Z,483.70
2023-11-10T07:23:04.983Z,483.70
2023-11-10T07:23:50.090Z,483.70
2023-11-10T07:24:35.143Z,483.70
2023-11-10T07:25:20.108Z,483.70
2023-11-10T07:26:05.079Z,483.70
2023-11-10T07:26:50.263Z,483.70
2023-11-10T07:27:35.171Z,483.70
2023-11-10T07:28:20.436Z,483.70
2023-11-10T07:29:05.302Z,483.70
2023-11-10T07:29:50.737Z,483.70
2023-11-10T07:30:35.948Z,483.70
2023-11-10T07:31:21.028Z,483.70
2023-11-10T07:32:05.913Z,483.70
2023-11-10T07:32:50.986Z,352.90
2023-11-10T07:33:35.541Z,231.93
2023-11-10T07:34:20.679Z,478.87
2023-11-10T07:35:05.780Z,478.87
2023-11-10T07:35:51.401Z,280.92
2023-11-10T07:36:35.885Z,343.90
2023-11-10T07:37:21.027Z,553.84
2023-11-10T07:38:05.937Z,816.31
2023-11-10T07:38:51.272Z,816.31
2023-11-10T07:39:36.231Z,627.82
2023-11-10T07:40:22.529Z,536.85
2023-11-10T07:41:06.177Z,715.80
2023-11-10T07:41:52.676Z,481.86
2023-11-10T07:42:36.598Z,591.80
2023-11-10T07:43:21.530Z,655.77
2023-11-10T07:44:06.238Z,476.84
2023-11-10T07:44:51.294Z,476.84
2023-11-10T07:45:36.732Z,887.55
2023-11-10T07:46:21.530Z,992.50
2023-11-10T07:47:06.423Z,1024.65
2023-11-10T07:47:51.567Z,1070.46
2023-11-10T07:48:36.945Z,1099.44
2023-11-10T07:49:21.724Z,1099.44
2023-11-10T07:50:06.690Z,396.80
2023-11-10T07:50:51.769Z,411.79
2023-11-10T07:51:37.153Z,386.80
2023-11-10T07:52:22.140Z,386.80
2023-11-10T07:53:06.884Z,417.86
2023-11-10T07:53:52.196Z,420.69
2023-11-10T07:54:37.514Z,379.81
2023-11-10T07:55:22.186Z,379.81
2023-11-10T07:56:07.285Z,297.85
2023-11-10T07:56:52.134Z,297.85
2023-11-10T07:57:37.431Z,332.83
2023-11-10T07:58:22.490Z,420.69
2023-11-10T07:59:08.024Z,387.87
2023-11-10T07:59:52.347Z,414.75
2023-11-10T08:00:37.655Z,451.84
2023-11-10T08:01:22.924Z,378.87
2023-11-10T08:02:07.562Z,416.79
2023-11-10T08:02:53.552Z,370.87
2023-11-10T08:03:37.849Z,393.86
2023-11-10T08:04:22.835Z,393.86
2023-11-10T08:05:07.986Z,350.88
2023-11-10T08:05:52.663Z,332.89
2023-11-10T08:06:37.833Z,303.90
2023-11-10T08:07:22.737Z,338.88
2023-11-10T08:08:07.961Z,377.87
2023-11-10T08:08:53.077Z,344.88
2023-11-10T08:09:38.611Z,397.86
2023-11-10T08:10:23.093Z,388.87
2023-11-10T08:11:08.026Z,368.87
2023-11-10T08:11:55.412Z,396.86
2023-11-10T08:12:38.386Z,422.85
2023-11-10T08:13:23.129Z,444.73
2023-11-10T08:14:08.672Z,477.84
2023-11-10T08:14:53.552Z,477.84
2023-11-10T08:15:39.165Z,526.82
2023-11-10T08:16:23.887Z,464.84
2023-11-10T08:17:08.296Z,409.86
2023-11-10T08:17:53.410Z,436.85
2023-11-10T08:18:38.668Z,452.84
2023-11-10T08:19:23.484Z,420.86
2023-11-10T08:20:08.739Z,460.84
2023-11-10T08:20:54.018Z,482.83
2023-11-10T08:21:40.947Z,415.86
2023-11-10T08:22:23.981Z,412.86
2023-11-10T08:23:08.501Z,453.84
2023-11-10T08:23:53.880Z,491.83
2023-11-10T08:24:39.072Z,539.81
2023-11-10T08:25:23.953Z,546.81
2023-11-10T08:26:09.054Z,521.82
2023-11-10T08:26:54.048Z,485.83
2023-11-10T08:27:39.187Z,533.82
2023-11-10T08:28:24.141Z,376.87
2023-11-10T08:29:09.011Z,379.87
2023-11-10T08:29:54.682Z,414.75
2023-11-10T08:30:39.558Z,507.86
2023-11-10T08:31:24.681Z,438.88
2023-11-10T08:32:09.448Z,407.94
2023-11-10T08:32:54.639Z,452.97
2023-11-10T08:33:39.470Z,475.98
2023-11-10T08:34:24.730Z,451.97
2023-11-10T08:35:09.744Z,489.95
2023-11-10T08:35:55.008Z,461.93
2023-11-10T08:36:39.702Z,482.86
2023-11-10T08:37:24.759Z,448.90
2023-11-10T08:38:10.060Z,536.88
2023-11-10T08:38:54.855Z,544.88
2023-11-10T08:39:40.262Z,639.78
2023-11-10T08:40:25.069Z,648.85
2023-11-10T08:41:10.041Z,648.85
2023-11-10T08:41:55.428Z,570.89
2023-11-10T08:42:40.011Z,623.89
2023-11-10T08:43:25.325Z,578.91
2023-11-10T08:44:10.612Z,604.86
2023-11-10T08:44:55.180Z,607.89
2023-11-10T08:45:40.552Z,607.89
2023-11-10T08:46:25.913Z,567.90
2023-11-10T08:47:10.759Z,400.93
2023-11-10T08:47:56.073Z,488.91
2023-11-10T08:48:40.732Z,448.92
2023-11-10T08:49:25.766Z,498.91
2023-11-10T08:50:10.817Z,543.90
2023-11-10T08:50:55.908Z,503.91
2023-11-10T08:51:40.729Z,440.92
2023-11-10T08:52:25.751Z,404.94
2023-11-10T08:53:10.899Z,427.90
2023-11-10T08:53:56.020Z,481.93
2023-11-10T08:54:41.133Z,475.89
2023-11-10T08:55:26.015Z,401.94
2023-11-10T08:56:11.067Z,424.92
2023-11-10T08:56:56.101Z,564.92
2023-11-10T08:57:41.042Z,564.92
2023-11-10T08:58:26.542Z,392.96
2023-11-10T08:59:11.482Z,462.91
2023-11-10T08:59:56.247Z,465.93
2023-11-10T09:00:41.544Z,694.90
2023-11-10T09:01:26.695Z,403.93
2023-11-10T09:02:11.869Z,403.93
2023-11-10T09:02:56.754Z,377.93
2023-11-10T09:03:41.861Z,347.94
2023-11-10T09:04:26.616Z,371.93
2023-11-10T09:05:11.730Z,366.95
2023-11-10T09:05:57.101Z,343.94
2023-11-10T09:06:41.842Z,392.93
2023-11-10T09:07:26.866Z,385.93
2023-11-10T09:08:11.583Z,892.84
2023-11-10T09:08:56.796Z,1100.80
2023-11-10T09:09:42.016Z,1100.80
2023-11-10T09:10:27.458Z,1061.80
2023-11-10T09:11:12.141Z,1080.80
2023-11-10T09:11:57.316Z,1090.80
2023-11-10T09:12:42.096Z,1090.80
2023-11-10T09:13:27.269Z,1082.80
2023-11-10T09:14:12.546Z,826.77
2023-11-10T09:14:57.685Z,768.86
2023-11-10T09:15:44.398Z,797.78
2023-11-10T09:16:27.885Z,553.90
2023-11-10T09:17:12.829Z,802.85
2023-11-10T09:17:57.589Z,831.85
2023-11-10T09:18:42.913Z,880.84
2023-11-10T09:19:27.939Z,880.84
2023-11-10T09:20:13.191Z,545.90
2023-11-10T09:20:57.953Z,484.91
2023-11-10T09:21:43.277Z,552.90
2023-11-10T09:22:27.891Z,535.90
2023-11-10T09:23:13.026Z,521.90
2023-11-10T09:23:58.250Z,430.92
2023-11-10T09:24:43.122Z,404.93
2023-11-10T09:25:28.428Z,390.93
2023-11-10T09:26:13.126Z,469.91
2023-11-10T09:26:58.257Z,461.91
2023-11-10T09:27:43.620Z,489.91
2023-11-10T09:28:28.547Z,415.92
2023-11-10T09:29:13.511Z,493.91
2023-11-10T09:29:58.576Z,551.90
2023-11-10T09:30:43.484Z,649.88